Pamlico — WX6900 — position and weather

sailwx.info

Track history (hours):
 
Tides and Currents Weather Stations Pressure Air Temp Water Temp Dewpoint Dewpoint Depression Visibility Wind Speed Wind Dir Waves Ship Positions

Pamlico

Owner: PCS Phosphate, AURORA, NC. More information available from US FCC via Universal Licensing System and Coast Guard Vessel Documentation Center.

Last reported at 2017-Jul-14 12:08 UTC. Time now 2017-Jul-27 16:45 UTC.
Position N 34°57' W 076°40'.
Warning: this ship's position is 13 days out of date.

Length 30 m; draft 2 m.

Type: Tug. MMSI: 367361220.

Date/timePositionNaut miles runAvg speedWind from/ knotsBaromVisibWave heightAir tempDewpointWater temp
2017-Jul-14 12:08N 34°57' W 076°40'1 6.9
2017-Jul-14 11:57N 34°56' W 076°39'3 5.8
2017-Jul-14 11:28N 34°54' W 076°41'2 5.3
2017-Jul-14 11:00N 34°51' W 076°41'3 5.5
2017-Jul-14 10:30N 34°49' W 076°41'3 5.6
2017-Jul-14 10:00N 34°46' W 076°41'3 5.1
2017-Jul-14 09:30N 34°43' W 076°42'0 0.3
2017-Jul-14 09:00N 34°43' W 076°42'0 0.0
2017-Jul-14 08:30N 34°43' W 076°42'0 0.1
2017-Jul-14 08:00N 34°43' W 076°42'0 0.1
2017-Jul-14 07:30N 34°43' W 076°42'2 4.4
2017-Jul-14 07:00N 34°45' W 076°40'3 5.1
2017-Jul-14 06:30N 34°48' W 076°41'2 3.8
2017-Jul-14 06:00N 34°50' W 076°41'2 3.5
2017-Jul-14 05:30N 34°51' W 076°41'2 3.3
2017-Jul-14 05:00N 34°53' W 076°41'1 2.6
2017-Jul-14 04:30N 34°54' W 076°40'2 4.2
2017-Jul-14 03:54N 34°57' W 076°40'2 5.0
2017-Jul-14 03:30N 34°58' W 076°41'7 5.3
2017-Jul-14 02:12N 35°03' W 076°35'2 5.8
2017-Jul-14 01:53N 35°04' W 076°34'2 5.7
2017-Jul-14 01:28N 35°06' W 076°32'3 5.9
2017-Jul-14 00:56N 35°09' W 076°30'3 5.9
2017-Jul-14 00:25N 35°11' W 076°33'94 2.1
2017-Jul-12 03:42N 36°43' W 076°14'1 3.0
2017-Jul-12 03:25N 36°43' W 076°15'1 1.9
2017-Jul-12 02:59N 36°44' W 076°16'2 5.1
2017-Jul-12 02:30N 36°46' W 076°18'1 2.2
2017-Jul-12 02:00N 36°47' W 076°18'0 0.0
2017-Jul-12 01:30N 36°47' W 076°18'2 3.2
2017-Jul-12 01:00N 36°48' W 076°17'2 4.6
2017-Jul-12 00:30N 36°50' W 076°17'0 0.4
2017-Jul-12 00:00N 36°50' W 076°16'0 0.5
2017-Jul-11 23:30N 36°50' W 076°17'3 5.3
2017-Jul-11 23:00N 36°52' W 076°19'0 0.9
2017-Jul-11 22:30N 36°52' W 076°20'3 6.2
2017-Jul-11 22:00N 36°50' W 076°17'0 0.1
2017-Jul-11 21:30N 36°50' W 076°17'0 0.0
2017-Jul-11 21:00N 36°50' W 076°17'0 0.0
2017-Jul-11 20:30N 36°50' W 076°17'0 0.0
2017-Jul-11 20:00N 36°50' W 076°17'0 0.0
2017-Jul-11 19:30N 36°50' W 076°17'0 0.0
2017-Jul-11 19:00N 36°50' W 076°17'0 0.0
2017-Jul-11 18:30N 36°50' W 076°17'0 0.0
2017-Jul-11 18:00N 36°50' W 076°17'0 0.0
2017-Jul-11 17:30N 36°50' W 076°17'0 0.0
2017-Jul-11 17:00N 36°50' W 076°17'0 0.0
2017-Jul-11 16:30N 36°50' W 076°17'0 0.0
2017-Jul-11 16:00N 36°50' W 076°17'0 0.0
2017-Jul-11 15:30N 36°50' W 076°17'0 0.0
2017-Jul-11 15:00N 36°50' W 076°17'0 0.0
2017-Jul-11 14:30N 36°50' W 076°17'0 0.0
2017-Jul-11 14:00N 36°50' W 076°17'0 0.0
2017-Jul-11 13:30N 36°50' W 076°17'0 0.0
2017-Jul-11 13:00N 36°50' W 076°17'0 0.0
2017-Jul-11 12:30N 36°50' W 076°17'0 0.0
2017-Jul-11 12:00N 36°50' W 076°17'0 0.0
2017-Jul-11 11:30N 36°50' W 076°17'0 0.0
2017-Jul-11 11:00N 36°50' W 076°17'0 0.0
2017-Jul-11 10:30N 36°50' W 076°17'0 0.0
2017-Jul-11 10:00N 36°50' W 076°17'0 0.0
2017-Jul-11 09:30N 36°50' W 076°17'0 0.0
2017-Jul-11 09:00N 36°50' W 076°17'0 0.0
2017-Jul-11 08:30N 36°50' W 076°17'0 0.0
2017-Jul-11 08:00N 36°50' W 076°17'0 0.0
2017-Jul-11 07:30N 36°50' W 076°17'0 0.0
2017-Jul-11 07:00N 36°50' W 076°17'0 0.0
2017-Jul-11 06:30N 36°50' W 076°17'0 0.0
2017-Jul-11 06:00N 36°50' W 076°17'0 0.0
2017-Jul-11 05:30N 36°50' W 076°17'0 0.0
2017-Jul-11 05:00N 36°50' W 076°17'0 0.0
2017-Jul-11 04:30N 36°50' W 076°17'0 0.0
2017-Jul-11 04:00N 36°50' W 076°17'0 0.0
2017-Jul-11 03:30N 36°50' W 076°17'0 0.0
2017-Jul-11 03:00N 36°50' W 076°17'0 0.0
2017-Jul-11 02:30N 36°50' W 076°17'0 0.0
2017-Jul-11 02:00N 36°50' W 076°17'0 0.0
2017-Jul-11 01:30N 36°50' W 076°17'0 0.0
2017-Jul-11 01:00N 36°50' W 076°17'0 0.0
2017-Jul-11 00:30N 36°50' W 076°17'0 0.0
2017-Jul-11 00:00N 36°50' W 076°17'0 0.0
2017-Jul-10 23:30N 36°50' W 076°17'0 0.0
2017-Jul-10 23:00N 36°50' W 076°17'0 0.0
2017-Jul-10 22:30N 36°50' W 076°17'0 0.0
2017-Jul-10 22:00N 36°50' W 076°17'0 0.0
2017-Jul-10 21:30N 36°50' W 076°17'0 0.0
2017-Jul-10 21:00N 36°50' W 076°17'0 0.0
2017-Jul-10 20:30N 36°50' W 076°17'0 0.0
2017-Jul-10 13:55N 36°50' W 076°17'0 0.0
2017-Jul-10 13:30N 36°50' W 076°17'0 0.0
2017-Jul-10 13:00N 36°50' W 076°17'0 0.0
2017-Jul-10 12:30N 36°50' W 076°17'0 0.0
2017-Jul-10 12:00N 36°50' W 076°17'0 0.0
2017-Jul-10 11:30N 36°50' W 076°17'0 0.0
2017-Jul-10 11:00N 36°50' W 076°17'0 0.0
2017-Jul-10 10:30N 36°50' W 076°17'0 0.0
2017-Jul-10 10:00N 36°50' W 076°17'0 0.0
2017-Jul-10 09:30N 36°50' W 076°17'0 0.0
2017-Jul-10 09:00N 36°50' W 076°17'0 0.0
2017-Jul-10 08:30N 36°50' W 076°17'0 0.0
2017-Jul-10 08:00N 36°50' W 076°17'0 0.0
2017-Jul-10 07:30N 36°50' W 076°17'0 0.0
2017-Jul-10 07:00N 36°50' W 076°17'0 0.0
2017-Jul-10 06:30N 36°50' W 076°17'0 0.0
2017-Jul-10 06:00N 36°50' W 076°17'0 0.0
2017-Jul-10 05:30N 36°50' W 076°17'0 0.0
2017-Jul-10 05:00N 36°50' W 076°17'0 0.0
2017-Jul-10 04:30N 36°50' W 076°17'0 0.0
2017-Jul-10 04:00N 36°50' W 076°17'0 0.0
2017-Jul-10 03:30N 36°50' W 076°17'0 0.0
2017-Jul-10 03:00N 36°50' W 076°17'0 0.0
2017-Jul-10 02:30N 36°50' W 076°17'0 0.0
2017-Jul-10 02:00N 36°50' W 076°17'0 0.0
2017-Jul-10 01:30N 36°50' W 076°17'0 0.0
2017-Jul-10 01:00N 36°50' W 076°17'0 0.0
2017-Jul-10 00:30N 36°50' W 076°17'0 0.0
2017-Jul-10 00:00N 36°50' W 076°17'0 0.0
2017-Jul-09 23:30N 36°50' W 076°17'0 0.0
2017-Jul-09 23:00N 36°50' W 076°17'0 0.0
2017-Jul-09 22:30N 36°50' W 076°17'0 0.0
2017-Jul-09 22:00N 36°50' W 076°17'0 0.0
2017-Jul-09 21:30N 36°50' W 076°17'0 0.0
2017-Jul-09 21:00N 36°50' W 076°17'0 0.0
2017-Jul-09 20:30N 36°50' W 076°17'0 0.0
2017-Jul-09 20:00N 36°50' W 076°17'0 0.0
2017-Jul-09 19:30N 36°50' W 076°17'0 0.0
2017-Jul-09 19:00N 36°50' W 076°17'0 0.0
2017-Jul-09 18:30N 36°50' W 076°17'0 0.0
2017-Jul-09 18:00N 36°50' W 076°17'0 0.0
2017-Jul-09 17:30N 36°50' W 076°17'0 0.0
2017-Jul-09 17:00N 36°50' W 076°17'0 0.0
2017-Jul-09 16:30N 36°50' W 076°17'0 0.0
2017-Jul-09 16:00N 36°50' W 076°17'0 0.0
2017-Jul-09 15:30N 36°50' W 076°17'0 0.0
2017-Jul-09 15:00N 36°50' W 076°17'0 0.0
2017-Jul-09 14:30N 36°50' W 076°17'0 0.0
2017-Jul-09 14:00N 36°50' W 076°17'0 0.0
2017-Jul-09 13:30N 36°50' W 076°17'0 0.0
2017-Jul-09 13:00N 36°50' W 076°17'0 0.0
2017-Jul-09 12:30N 36°50' W 076°17'0 0.0
2017-Jul-09 12:00N 36°50' W 076°17'0 0.0
2017-Jul-09 11:30N 36°50' W 076°17'0 0.0
2017-Jul-09 11:00N 36°50' W 076°17'0 0.0
2017-Jul-09 10:30N 36°50' W 076°17'0 0.0
2017-Jul-09 10:00N 36°50' W 076°17'0 0.0
2017-Jul-09 09:30N 36°50' W 076°17'0 0.0
2017-Jul-09 09:00N 36°50' W 076°17'0 0.0
2017-Jul-09 08:30N 36°50' W 076°17'0 0.0
2017-Jul-09 08:00N 36°50' W 076°17'0 0.0
2017-Jul-09 07:30N 36°50' W 076°17'0 0.0
2017-Jul-09 07:00N 36°50' W 076°17'0 0.0
2017-Jul-09 06:30N 36°50' W 076°17'0 0.0
2017-Jul-09 02:51N 36°50' W 076°17'0 0.0
2017-Jul-09 02:30N 36°50' W 076°17'0 0.0
2017-Jul-09 02:00N 36°50' W 076°17'0 0.0
2017-Jul-09 01:30N 36°50' W 076°17'0 0.0
2017-Jul-09 01:00N 36°50' W 076°17'0 0.0
2017-Jul-09 00:30N 36°50' W 076°17'0 0.0
2017-Jul-09 00:00N 36°50' W 076°17'0 0.0
2017-Jul-08 23:30N 36°50' W 076°17'0 0.0
2017-Jul-08 23:00N 36°50' W 076°17'0 0.0
2017-Jul-08 22:30N 36°50' W 076°17'0 0.0
2017-Jul-08 22:00N 36°50' W 076°17'0 0.0
2017-Jul-08 21:30N 36°50' W 076°17'0 0.0
2017-Jul-08 21:00N 36°50' W 076°17'0 0.0
2017-Jul-08 20:30N 36°50' W 076°17'0 0.0
2017-Jul-08 20:00N 36°50' W 076°17'0 0.0
2017-Jul-08 19:30N 36°50' W 076°17'0 0.0
2017-Jul-08 19:00N 36°50' W 076°17'0 0.0
2017-Jul-08 18:30N 36°50' W 076°17'0 0.0
2017-Jul-08 18:00N 36°50' W 076°17'0 0.0
2017-Jul-08 17:30N 36°50' W 076°17'0 0.0
2017-Jul-08 17:00N 36°50' W 076°17'0 0.0
2017-Jul-08 16:30N 36°50' W 076°17'0 0.0
2017-Jul-08 16:00N 36°50' W 076°17'0 0.0
2017-Jul-08 15:30N 36°50' W 076°17'0 0.0
2017-Jul-08 15:00N 36°50' W 076°17'0 0.0
2017-Jul-08 14:00N 36°50' W 076°17'0 0.0
2017-Jul-08 13:30N 36°50' W 076°17'0 0.0
2017-Jul-08 13:00N 36°50' W 076°17'0 0.0
2017-Jul-08 12:30N 36°50' W 076°17'0 0.0
2017-Jul-08 12:00N 36°50' W 076°17'0 0.0
2017-Jul-08 11:30N 36°50' W 076°17'0 0.0
2017-Jul-08 11:00N 36°50' W 076°17'0 0.0
2017-Jul-08 10:30N 36°50' W 076°17'0 0.0
2017-Jul-08 10:00N 36°50' W 076°17'0 0.0
2017-Jul-08 09:30N 36°50' W 076°17'0 0.0
2017-Jul-08 09:00N 36°50' W 076°17'0 0.0
2017-Jul-08 08:30N 36°50' W 076°17'0 0.0
2017-Jul-08 08:00N 36°50' W 076°17'0 0.0
2017-Jul-08 07:30N 36°50' W 076°17'0 0.0
2017-Jul-08 07:00N 36°50' W 076°17'0 0.0
2017-Jul-08 06:30N 36°50' W 076°17'0 0.0
2017-Jul-08 06:00N 36°50' W 076°17'0 0.0
2017-Jul-08 05:30N 36°50' W 076°17'0 0.0
2017-Jul-08 05:00N 36°50' W 076°17'0 0.0
2017-Jul-08 04:30N 36°50' W 076°17'0 0.0
2017-Jul-08 04:00N 36°50' W 076°17'0 0.0
2017-Jul-08 03:30N 36°50' W 076°17'0 0.0
2017-Jul-08 03:00N 36°50' W 076°17'0 0.0
2017-Jul-08 02:30N 36°50' W 076°17'0 0.0
2017-Jul-08 02:00N 36°50' W 076°17'0 0.0
2017-Jul-08 01:30N 36°50' W 076°17'0 0.0
2017-Jul-08 01:00N 36°50' W 076°17'0 0.0
2017-Jul-08 00:30N 36°50' W 076°17'0 0.0
2017-Jul-08 00:00N 36°50' W 076°17'0 0.0
2017-Jul-07 23:30N 36°50' W 076°17'0 0.0
2017-Jul-07 23:00N 36°50' W 076°17'0 0.0
2017-Jul-07 22:30N 36°50' W 076°17'0 0.0
2017-Jul-07 22:00N 36°50' W 076°17'0 0.0
2017-Jul-07 21:30N 36°50' W 076°17'0 0.0
2017-Jul-07 21:00N 36°50' W 076°17'0 0.0
2017-Jul-07 20:30N 36°50' W 076°17'0 0.0
2017-Jul-07 20:00N 36°50' W 076°17'0 0.0
2017-Jul-07 19:30N 36°50' W 076°17'0 0.0
2017-Jul-07 19:00N 36°50' W 076°17'0 0.0
2017-Jul-07 18:30N 36°50' W 076°17'0 0.0
2017-Jul-07 18:00N 36°50' W 076°17'0 0.0
2017-Jul-07 17:30N 36°50' W 076°17'0 0.0
2017-Jul-07 17:00N 36°50' W 076°17'0 0.0
2017-Jul-07 16:30N 36°50' W 076°17'0 0.0
2017-Jul-07 16:00N 36°50' W 076°17'0 0.0
2017-Jul-07 15:30N 36°50' W 076°17'0 0.0
2017-Jul-07 15:00N 36°50' W 076°17'0 0.0
2017-Jul-07 14:00N 36°50' W 076°17'0 0.0
2017-Jul-07 13:30N 36°50' W 076°17'0 0.0
2017-Jul-07 13:00N 36°50' W 076°17'0 0.0
2017-Jul-07 12:30N 36°50' W 076°17'0 0.0
2017-Jul-07 12:00N 36°50' W 076°17'0 0.0
2017-Jul-07 11:30N 36°50' W 076°17'0 0.0
2017-Jul-07 11:00N 36°50' W 076°17'0 0.0
2017-Jul-07 10:30N 36°50' W 076°17'0 0.0
2017-Jul-07 10:00N 36°50' W 076°17'0 0.0
2017-Jul-07 09:30N 36°50' W 076°17'0 0.0
2017-Jul-07 09:00N 36°50' W 076°17'0 0.0
2017-Jul-07 08:30N 36°50' W 076°17'0 0.0
2017-Jul-07 08:00N 36°50' W 076°17'0 0.0
2017-Jul-07 07:30N 36°50' W 076°17'0 0.0
2017-Jul-07 07:00N 36°50' W 076°17'0 0.0
2017-Jul-07 06:30N 36°50' W 076°17'0 0.0
2017-Jul-07 06:00N 36°50' W 076°17'0 0.0
2017-Jul-07 05:30N 36°50' W 076°17'0 0.0
2017-Jul-07 05:00N 36°50' W 076°17'0 0.0
2017-Jul-07 04:30N 36°50' W 076°17'0 0.0
2017-Jul-07 04:00N 36°50' W 076°17'0 0.0
2017-Jul-07 03:30N 36°50' W 076°17'0 0.0
2017-Jul-07 03:00N 36°50' W 076°17'0 0.0
2017-Jul-07 02:30N 36°50' W 076°17'0 0.0
2017-Jul-07 02:00N 36°50' W 076°17'0 0.0
2017-Jul-07 01:30N 36°50' W 076°17'0 0.0
2017-Jul-07 01:00N 36°50' W 076°17'0 0.0
2017-Jul-07 00:30N 36°50' W 076°17'0 0.0
2017-Jul-07 00:00N 36°50' W 076°17'0 0.0
2017-Jul-06 23:30N 36°50' W 076°17'0 0.0
2017-Jul-06 23:16N 36°50' W 076°17'0 0.0
2017-Jul-05 08:31N 36°50' W 076°17'0 0.0
2017-Jul-05 08:01N 36°50' W 076°17'0 0.0
2017-Jul-05 07:31N 36°50' W 076°17'0 0.0
2017-Jul-05 07:00N 36°50' W 076°17'0 0.0
2017-Jul-05 06:31N 36°50' W 076°17'0 0.0
2017-Jul-05 06:00N 36°50' W 076°17'0 0.0
2017-Jul-05 05:30N 36°50' W 076°17'0 0.0
2017-Jul-05 05:00N 36°50' W 076°17'0 0.0
2017-Jul-05 04:30N 36°50' W 076°17'0 0.0
2017-Jul-05 04:00N 36°50' W 076°17'0 0.0
2017-Jul-05 03:30N 36°50' W 076°17'0 0.0
2017-Jul-05 03:00N 36°50' W 076°17'0 0.0
2017-Jul-05 02:30N 36°50' W 076°17'0 0.0
2017-Jul-05 02:00N 36°50' W 076°17'0 0.0
2017-Jul-05 01:30N 36°50' W 076°17'0 0.0
2017-Jul-05 01:00N 36°50' W 076°17'0 0.0
2017-Jul-05 00:30N 36°50' W 076°17'0 0.0
2017-Jul-05 00:00N 36°50' W 076°17'0 0.0
2017-Jul-04 23:30N 36°50' W 076°17'0 0.0
2017-Jul-04 23:00N 36°50' W 076°17'0 0.0
2017-Jul-04 22:30N 36°50' W 076°17'0 0.0
2017-Jul-04 22:00N 36°50' W 076°17'0 0.0
2017-Jul-04 21:30N 36°50' W 076°17'0 0.0
2017-Jul-04 21:01N 36°50' W 076°17'0 0.0
2017-Jul-04 20:31N 36°50' W 076°17'0 0.0
2017-Jul-04 20:01N 36°50' W 076°17'0 0.0
2017-Jul-04 19:31N 36°50' W 076°17'0 0.0
2017-Jul-04 19:00N 36°50' W 076°17'0 0.0
2017-Jul-04 18:30N 36°50' W 076°17'0 0.0
2017-Jul-04 18:00N 36°50' W 076°17'0 0.0
2017-Jul-04 17:30N 36°50' W 076°17'0 0.0
2017-Jul-04 17:00N 36°50' W 076°17'0 0.0
2017-Jul-04 16:30N 36°50' W 076°17'0 0.0
2017-Jul-04 16:00N 36°50' W 076°17'0 0.0
2017-Jul-04 15:30N 36°50' W 076°17'0 0.0
2017-Jul-04 15:00N 36°50' W 076°17'0 0.0
2017-Jul-04 14:00N 36°50' W 076°17'0 0.0
2017-Jul-04 13:30N 36°50' W 076°17'0 0.0
2017-Jul-04 13:00N 36°50' W 076°17'0 0.0
2017-Jul-04 12:30N 36°50' W 076°17'  
Track history (hours):
 
Tides and Currents Weather Stations Pressure Air Temp Water Temp Dewpoint Dewpoint Depression Visibility Wind Speed Wind Dir Waves Ship Positions

Pamlico

Owner: PCS Phosphate, AURORA, NC. More information available from US FCC via Universal Licensing System and Coast Guard Vessel Documentation Center.

Last reported at 2017-Jul-14 12:08 UTC. Time now 2017-Jul-27 16:45 UTC.
Position N 34°57' W 076°40'.
Warning: this ship's position is 13 days out of date.

Length 30 m; draft 2 m.

Type: Tug. MMSI: 367361220.

Date/timePositionNaut miles runAvg speedWind from/ knotsBaromVisibWave heightAir tempDewpointWater temp
2017-Jul-14 12:08N 34°57' W 076°40'1 6.9
2017-Jul-14 11:57N 34°56' W 076°39'3 5.8
2017-Jul-14 11:28N 34°54' W 076°41'2 5.3
2017-Jul-14 11:00N 34°51' W 076°41'3 5.5
2017-Jul-14 10:30N 34°49' W 076°41'3 5.6
2017-Jul-14 10:00N 34°46' W 076°41'3 5.1
2017-Jul-14 09:30N 34°43' W 076°42'0 0.3
2017-Jul-14 09:00N 34°43' W 076°42'0 0.0
2017-Jul-14 08:30N 34°43' W 076°42'0 0.1
2017-Jul-14 08:00N 34°43' W 076°42'0 0.1
2017-Jul-14 07:30N 34°43' W 076°42'2 4.4
2017-Jul-14 07:00N 34°45' W 076°40'3 5.1
2017-Jul-14 06:30N 34°48' W 076°41'2 3.8
2017-Jul-14 06:00N 34°50' W 076°41'2 3.5
2017-Jul-14 05:30N 34°51' W 076°41'2 3.3
2017-Jul-14 05:00N 34°53' W 076°41'1 2.6
2017-Jul-14 04:30N 34°54' W 076°40'2 4.2
2017-Jul-14 03:54N 34°57' W 076°40'2 5.0
2017-Jul-14 03:30N 34°58' W 076°41'7 5.3
2017-Jul-14 02:12N 35°03' W 076°35'2 5.8
2017-Jul-14 01:53N 35°04' W 076°34'2 5.7
2017-Jul-14 01:28N 35°06' W 076°32'3 5.9
2017-Jul-14 00:56N 35°09' W 076°30'3 5.9
2017-Jul-14 00:25N 35°11' W 076°33'94 2.1
2017-Jul-12 03:42N 36°43' W 076°14'1 3.0
2017-Jul-12 03:25N 36°43' W 076°15'1 1.9
2017-Jul-12 02:59N 36°44' W 076°16'2 5.1
2017-Jul-12 02:30N 36°46' W 076°18'1 2.2
2017-Jul-12 02:00N 36°47' W 076°18'0 0.0
2017-Jul-12 01:30N 36°47' W 076°18'2 3.2
2017-Jul-12 01:00N 36°48' W 076°17'2 4.6
2017-Jul-12 00:30N 36°50' W 076°17'0 0.4
2017-Jul-12 00:00N 36°50' W 076°16'0 0.5
2017-Jul-11 23:30N 36°50' W 076°17'3 5.3
2017-Jul-11 23:00N 36°52' W 076°19'0 0.9
2017-Jul-11 22:30N 36°52' W 076°20'3 6.2
2017-Jul-11 22:00N 36°50' W 076°17'0 0.1
2017-Jul-11 21:30N 36°50' W 076°17'0 0.0
2017-Jul-11 21:00N 36°50' W 076°17'0 0.0
2017-Jul-11 20:30N 36°50' W 076°17'0 0.0
2017-Jul-11 20:00N 36°50' W 076°17'0 0.0
2017-Jul-11 19:30N 36°50' W 076°17'0 0.0
2017-Jul-11 19:00N 36°50' W 076°17'0 0.0
2017-Jul-11 18:30N 36°50' W 076°17'0 0.0
2017-Jul-11 18:00N 36°50' W 076°17'0 0.0
2017-Jul-11 17:30N 36°50' W 076°17'0 0.0
2017-Jul-11 17:00N 36°50' W 076°17'0 0.0
2017-Jul-11 16:30N 36°50' W 076°17'0 0.0
2017-Jul-11 16:00N 36°50' W 076°17'0 0.0
2017-Jul-11 15:30N 36°50' W 076°17'0 0.0
2017-Jul-11 15:00N 36°50' W 076°17'0 0.0
2017-Jul-11 14:30N 36°50' W 076°17'0 0.0
2017-Jul-11 14:00N 36°50' W 076°17'0 0.0
2017-Jul-11 13:30N 36°50' W 076°17'0 0.0
2017-Jul-11 13:00N 36°50' W 076°17'0 0.0
2017-Jul-11 12:30N 36°50' W 076°17'0 0.0
2017-Jul-11 12:00N 36°50' W 076°17'0 0.0
2017-Jul-11 11:30N 36°50' W 076°17'0 0.0
2017-Jul-11 11:00N 36°50' W 076°17'0 0.0
2017-Jul-11 10:30N 36°50' W 076°17'0 0.0
2017-Jul-11 10:00N 36°50' W 076°17'0 0.0
2017-Jul-11 09:30N 36°50' W 076°17'0 0.0
2017-Jul-11 09:00N 36°50' W 076°17'0 0.0
2017-Jul-11 08:30N 36°50' W 076°17'0 0.0
2017-Jul-11 08:00N 36°50' W 076°17'0 0.0
2017-Jul-11 07:30N 36°50' W 076°17'0 0.0
2017-Jul-11 07:00N 36°50' W 076°17'0 0.0
2017-Jul-11 06:30N 36°50' W 076°17'0 0.0
2017-Jul-11 06:00N 36°50' W 076°17'0 0.0
2017-Jul-11 05:30N 36°50' W 076°17'0 0.0
2017-Jul-11 05:00N 36°50' W 076°17'0 0.0
2017-Jul-11 04:30N 36°50' W 076°17'0 0.0
2017-Jul-11 04:00N 36°50' W 076°17'0 0.0
2017-Jul-11 03:30N 36°50' W 076°17'0 0.0
2017-Jul-11 03:00N 36°50' W 076°17'0 0.0
2017-Jul-11 02:30N 36°50' W 076°17'0 0.0
2017-Jul-11 02:00N 36°50' W 076°17'0 0.0
2017-Jul-11 01:30N 36°50' W 076°17'0 0.0
2017-Jul-11 01:00N 36°50' W 076°17'0 0.0
2017-Jul-11 00:30N 36°50' W 076°17'0 0.0
2017-Jul-11 00:00N 36°50' W 076°17'0 0.0
2017-Jul-10 23:30N 36°50' W 076°17'0 0.0
2017-Jul-10 23:00N 36°50' W 076°17'0 0.0
2017-Jul-10 22:30N 36°50' W 076°17'0 0.0
2017-Jul-10 22:00N 36°50' W 076°17'0 0.0
2017-Jul-10 21:30N 36°50' W 076°17'0 0.0
2017-Jul-10 21:00N 36°50' W 076°17'0 0.0
2017-Jul-10 20:30N 36°50' W 076°17'0 0.0
2017-Jul-10 13:55N 36°50' W 076°17'0 0.0
2017-Jul-10 13:30N 36°50' W 076°17'0 0.0
2017-Jul-10 13:00N 36°50' W 076°17'0 0.0
2017-Jul-10 12:30N 36°50' W 076°17'0 0.0
2017-Jul-10 12:00N 36°50' W 076°17'0 0.0
2017-Jul-10 11:30N 36°50' W 076°17'0 0.0
2017-Jul-10 11:00N 36°50' W 076°17'0 0.0
2017-Jul-10 10:30N 36°50' W 076°17'0 0.0
2017-Jul-10 10:00N 36°50' W 076°17'0 0.0
2017-Jul-10 09:30N 36°50' W 076°17'0 0.0
2017-Jul-10 09:00N 36°50' W 076°17'0 0.0
2017-Jul-10 08:30N 36°50' W 076°17'0 0.0
2017-Jul-10 08:00N 36°50' W 076°17'0 0.0
2017-Jul-10 07:30N 36°50' W 076°17'0 0.0
2017-Jul-10 07:00N 36°50' W 076°17'0 0.0
2017-Jul-10 06:30N 36°50' W 076°17'0 0.0
2017-Jul-10 06:00N 36°50' W 076°17'0 0.0
2017-Jul-10 05:30N 36°50' W 076°17'0 0.0
2017-Jul-10 05:00N 36°50' W 076°17'0 0.0
2017-Jul-10 04:30N 36°50' W 076°17'0 0.0
2017-Jul-10 04:00N 36°50' W 076°17'0 0.0
2017-Jul-10 03:30N 36°50' W 076°17'0 0.0
2017-Jul-10 03:00N 36°50' W 076°17'0 0.0
2017-Jul-10 02:30N 36°50' W 076°17'0 0.0
2017-Jul-10 02:00N 36°50' W 076°17'0 0.0
2017-Jul-10 01:30N 36°50' W 076°17'0 0.0
2017-Jul-10 01:00N 36°50' W 076°17'0 0.0
2017-Jul-10 00:30N 36°50' W 076°17'0 0.0
2017-Jul-10 00:00N 36°50' W 076°17'0 0.0
2017-Jul-09 23:30N 36°50' W 076°17'0 0.0
2017-Jul-09 23:00N 36°50' W 076°17'0 0.0
2017-Jul-09 22:30N 36°50' W 076°17'0 0.0
2017-Jul-09 22:00N 36°50' W 076°17'0 0.0
2017-Jul-09 21:30N 36°50' W 076°17'0 0.0
2017-Jul-09 21:00N 36°50' W 076°17'0 0.0
2017-Jul-09 20:30N 36°50' W 076°17'0 0.0
2017-Jul-09 20:00N 36°50' W 076°17'0 0.0
2017-Jul-09 19:30N 36°50' W 076°17'0 0.0
2017-Jul-09 19:00N 36°50' W 076°17'0 0.0
2017-Jul-09 18:30N 36°50' W 076°17'0 0.0
2017-Jul-09 18:00N 36°50' W 076°17'0 0.0
2017-Jul-09 17:30N 36°50' W 076°17'0 0.0
2017-Jul-09 17:00N 36°50' W 076°17'0 0.0
2017-Jul-09 16:30N 36°50' W 076°17'0 0.0
2017-Jul-09 16:00N 36°50' W 076°17'0 0.0
2017-Jul-09 15:30N 36°50' W 076°17'0 0.0
2017-Jul-09 15:00N 36°50' W 076°17'0 0.0
2017-Jul-09 14:30N 36°50' W 076°17'0 0.0
2017-Jul-09 14:00N 36°50' W 076°17'0 0.0
2017-Jul-09 13:30N 36°50' W 076°17'0 0.0
2017-Jul-09 13:00N 36°50' W 076°17'0 0.0
2017-Jul-09 12:30N 36°50' W 076°17'0 0.0
2017-Jul-09 12:00N 36°50' W 076°17'0 0.0
2017-Jul-09 11:30N 36°50' W 076°17'0 0.0
2017-Jul-09 11:00N 36°50' W 076°17'0 0.0
2017-Jul-09 10:30N 36°50' W 076°17'0 0.0
2017-Jul-09 10:00N 36°50' W 076°17'0 0.0
2017-Jul-09 09:30N 36°50' W 076°17'0 0.0
2017-Jul-09 09:00N 36°50' W 076°17'0 0.0
2017-Jul-09 08:30N 36°50' W 076°17'0 0.0
2017-Jul-09 08:00N 36°50' W 076°17'0 0.0
2017-Jul-09 07:30N 36°50' W 076°17'0 0.0
2017-Jul-09 07:00N 36°50' W 076°17'0 0.0
2017-Jul-09 06:30N 36°50' W 076°17'0 0.0
2017-Jul-09 02:51N 36°50' W 076°17'0 0.0
2017-Jul-09 02:30N 36°50' W 076°17'0 0.0
2017-Jul-09 02:00N 36°50' W 076°17'0 0.0
2017-Jul-09 01:30N 36°50' W 076°17'0 0.0
2017-Jul-09 01:00N 36°50' W 076°17'0 0.0
2017-Jul-09 00:30N 36°50' W 076°17'0 0.0
2017-Jul-09 00:00N 36°50' W 076°17'0 0.0
2017-Jul-08 23:30N 36°50' W 076°17'0 0.0
2017-Jul-08 23:00N 36°50' W 076°17'0 0.0
2017-Jul-08 22:30N 36°50' W 076°17'0 0.0
2017-Jul-08 22:00N 36°50' W 076°17'0 0.0
2017-Jul-08 21:30N 36°50' W 076°17'0 0.0
2017-Jul-08 21:00N 36°50' W 076°17'0 0.0
2017-Jul-08 20:30N 36°50' W 076°17'0 0.0
2017-Jul-08 20:00N 36°50' W 076°17'0 0.0
2017-Jul-08 19:30N 36°50' W 076°17'0 0.0
2017-Jul-08 19:00N 36°50' W 076°17'0 0.0
2017-Jul-08 18:30N 36°50' W 076°17'0 0.0
2017-Jul-08 18:00N 36°50' W 076°17'0 0.0
2017-Jul-08 17:30N 36°50' W 076°17'0 0.0
2017-Jul-08 17:00N 36°50' W 076°17'0 0.0
2017-Jul-08 16:30N 36°50' W 076°17'0 0.0
2017-Jul-08 16:00N 36°50' W 076°17'0 0.0
2017-Jul-08 15:30N 36°50' W 076°17'0 0.0
2017-Jul-08 15:00N 36°50' W 076°17'0 0.0
2017-Jul-08 14:00N 36°50' W 076°17'0 0.0
2017-Jul-08 13:30N 36°50' W 076°17'0 0.0
2017-Jul-08 13:00N 36°50' W 076°17'0 0.0
2017-Jul-08 12:30N 36°50' W 076°17'0 0.0
2017-Jul-08 12:00N 36°50' W 076°17'0 0.0
2017-Jul-08 11:30N 36°50' W 076°17'0 0.0
2017-Jul-08 11:00N 36°50' W 076°17'0 0.0
2017-Jul-08 10:30N 36°50' W 076°17'0 0.0
2017-Jul-08 10:00N 36°50' W 076°17'0 0.0
2017-Jul-08 09:30N 36°50' W 076°17'0 0.0
2017-Jul-08 09:00N 36°50' W 076°17'0 0.0
2017-Jul-08 08:30N 36°50' W 076°17'0 0.0
2017-Jul-08 08:00N 36°50' W 076°17'0 0.0
2017-Jul-08 07:30N 36°50' W 076°17'0 0.0
2017-Jul-08 07:00N 36°50' W 076°17'0 0.0
2017-Jul-08 06:30N 36°50' W 076°17'0 0.0
2017-Jul-08 06:00N 36°50' W 076°17'0 0.0
2017-Jul-08 05:30N 36°50' W 076°17'0 0.0
2017-Jul-08 05:00N 36°50' W 076°17'0 0.0
2017-Jul-08 04:30N 36°50' W 076°17'0 0.0
2017-Jul-08 04:00N 36°50' W 076°17'0 0.0
2017-Jul-08 03:30N 36°50' W 076°17'0 0.0
2017-Jul-08 03:00N 36°50' W 076°17'0 0.0
2017-Jul-08 02:30N 36°50' W 076°17'0 0.0
2017-Jul-08 02:00N 36°50' W 076°17'0 0.0
2017-Jul-08 01:30N 36°50' W 076°17'0 0.0
2017-Jul-08 01:00N 36°50' W 076°17'0 0.0
2017-Jul-08 00:30N 36°50' W 076°17'0 0.0
2017-Jul-08 00:00N 36°50' W 076°17'0 0.0
2017-Jul-07 23:30N 36°50' W 076°17'0 0.0
2017-Jul-07 23:00N 36°50' W 076°17'0 0.0
2017-Jul-07 22:30N 36°50' W 076°17'0 0.0
2017-Jul-07 22:00N 36°50' W 076°17'0 0.0
2017-Jul-07 21:30N 36°50' W 076°17'0 0.0
2017-Jul-07 21:00N 36°50' W 076°17'0 0.0
2017-Jul-07 20:30N 36°50' W 076°17'0 0.0
2017-Jul-07 20:00N 36°50' W 076°17'0 0.0
2017-Jul-07 19:30N 36°50' W 076°17'0 0.0
2017-Jul-07 19:00N 36°50' W 076°17'0 0.0
2017-Jul-07 18:30N 36°50' W 076°17'0 0.0
2017-Jul-07 18:00N 36°50' W 076°17'0 0.0
2017-Jul-07 17:30N 36°50' W 076°17'0 0.0
2017-Jul-07 17:00N 36°50' W 076°17'0 0.0
2017-Jul-07 16:30N 36°50' W 076°17'0 0.0
2017-Jul-07 16:00N 36°50' W 076°17'0 0.0
2017-Jul-07 15:30N 36°50' W 076°17'0 0.0
2017-Jul-07 15:00N 36°50' W 076°17'0 0.0
2017-Jul-07 14:00N 36°50' W 076°17'0 0.0
2017-Jul-07 13:30N 36°50' W 076°17'0 0.0
2017-Jul-07 13:00N 36°50' W 076°17'0 0.0
2017-Jul-07 12:30N 36°50' W 076°17'0 0.0
2017-Jul-07 12:00N 36°50' W 076°17'0 0.0
2017-Jul-07 11:30N 36°50' W 076°17'0 0.0
2017-Jul-07 11:00N 36°50' W 076°17'0 0.0
2017-Jul-07 10:30N 36°50' W 076°17'0 0.0
2017-Jul-07 10:00N 36°50' W 076°17'0 0.0
2017-Jul-07 09:30N 36°50' W 076°17'0 0.0
2017-Jul-07 09:00N 36°50' W 076°17'0 0.0
2017-Jul-07 08:30N 36°50' W 076°17'0 0.0
2017-Jul-07 08:00N 36°50' W 076°17'0 0.0
2017-Jul-07 07:30N 36°50' W 076°17'0 0.0
2017-Jul-07 07:00N 36°50' W 076°17'0 0.0
2017-Jul-07 06:30N 36°50' W 076°17'0 0.0
2017-Jul-07 06:00N 36°50' W 076°17'0 0.0
2017-Jul-07 05:30N 36°50' W 076°17'0 0.0
2017-Jul-07 05:00N 36°50' W 076°17'0 0.0
2017-Jul-07 04:30N 36°50' W 076°17'0 0.0
2017-Jul-07 04:00N 36°50' W 076°17'0 0.0
2017-Jul-07 03:30N 36°50' W 076°17'0 0.0
2017-Jul-07 03:00N 36°50' W 076°17'0 0.0
2017-Jul-07 02:30N 36°50' W 076°17'0 0.0
2017-Jul-07 02:00N 36°50' W 076°17'0 0.0
2017-Jul-07 01:30N 36°50' W 076°17'0 0.0
2017-Jul-07 01:00N 36°50' W 076°17'0 0.0
2017-Jul-07 00:30N 36°50' W 076°17'0 0.0
2017-Jul-07 00:00N 36°50' W 076°17'0 0.0
2017-Jul-06 23:30N 36°50' W 076°17'0 0.0
2017-Jul-06 23:16N 36°50' W 076°17'0 0.0
2017-Jul-05 08:31N 36°50' W 076°17'0 0.0
2017-Jul-05 08:01N 36°50' W 076°17'0 0.0
2017-Jul-05 07:31N 36°50' W 076°17'0 0.0
2017-Jul-05 07:00N 36°50' W 076°17'0 0.0
2017-Jul-05 06:31N 36°50' W 076°17'0 0.0
2017-Jul-05 06:00N 36°50' W 076°17'0 0.0
2017-Jul-05 05:30N 36°50' W 076°17'0 0.0
2017-Jul-05 05:00N 36°50' W 076°17'0 0.0
2017-Jul-05 04:30N 36°50' W 076°17'0 0.0
2017-Jul-05 04:00N 36°50' W 076°17'0 0.0
2017-Jul-05 03:30N 36°50' W 076°17'0 0.0
2017-Jul-05 03:00N 36°50' W 076°17'0 0.0
2017-Jul-05 02:30N 36°50' W 076°17'0 0.0
2017-Jul-05 02:00N 36°50' W 076°17'0 0.0
2017-Jul-05 01:30N 36°50' W 076°17'0 0.0
2017-Jul-05 01:00N 36°50' W 076°17'0 0.0
2017-Jul-05 00:30N 36°50' W 076°17'0 0.0
2017-Jul-05 00:00N 36°50' W 076°17'0 0.0
2017-Jul-04 23:30N 36°50' W 076°17'0 0.0
2017-Jul-04 23:00N 36°50' W 076°17'0 0.0
2017-Jul-04 22:30N 36°50' W 076°17'0 0.0
2017-Jul-04 22:00N 36°50' W 076°17'0 0.0
2017-Jul-04 21:30N 36°50' W 076°17'0 0.0
2017-Jul-04 21:01N 36°50' W 076°17'0 0.0
2017-Jul-04 20:31N 36°50' W 076°17'0 0.0
2017-Jul-04 20:01N 36°50' W 076°17'0 0.0
2017-Jul-04 19:31N 36°50' W 076°17'0 0.0
2017-Jul-04 19:00N 36°50' W 076°17'0 0.0
2017-Jul-04 18:30N 36°50' W 076°17'0 0.0
2017-Jul-04 18:00N 36°50' W 076°17'0 0.0
2017-Jul-04 17:30N 36°50' W 076°17'0 0.0
2017-Jul-04 17:00N 36°50' W 076°17'0 0.0
2017-Jul-04 16:30N 36°50' W 076°17'0 0.0
2017-Jul-04 16:00N 36°50' W 076°17'0 0.0
2017-Jul-04 15:30N 36°50' W 076°17'0 0.0
2017-Jul-04 15:00N 36°50' W 076°17'0 0.0
2017-Jul-04 14:00N 36°50' W 076°17'0 0.0
2017-Jul-04 13:30N 36°50' W 076°17'0 0.0
2017-Jul-04 13:00N 36°50' W 076°17'0 0.0
2017-Jul-04 12:30N 36°50' W 076°17'  

Dump ship's entire track history